createdAt,value
2023-02-04T00:00:42.365Z,73.52
2023-02-04T00:05:46.275Z,73.93
2023-02-04T00:10:50.368Z,74.09
2023-02-04T00:15:54.194Z,73.74
2023-02-04T00:20:57.926Z,73.48
2023-02-04T00:26:01.777Z,73.60
2023-02-04T00:31:05.923Z,73.52
2023-02-04T00:36:10.472Z,74.16
2023-02-04T00:41:14.659Z,73.93
2023-02-04T00:46:18.377Z,73.84
2023-02-04T00:51:23.171Z,73.88
2023-02-04T00:56:26.905Z,73.54
2023-02-04T01:01:31.729Z,73.60
2023-02-04T01:06:35.570Z,73.75
2023-02-04T01:11:40.408Z,73.94
2023-02-04T01:16:44.393Z,73.69
2023-02-04T01:21:48.502Z,73.56
2023-02-04T01:26:52.492Z,73.43
2023-02-04T01:31:56.477Z,73.79
2023-02-04T01:37:00.786Z,73.64
2023-02-04T01:42:05.141Z,73.80
2023-02-04T01:47:10.863Z,73.70
2023-02-04T01:52:15.654Z,73.82
2023-02-04T01:57:19.812Z,73.71
2023-02-04T02:02:53.862Z,73.95
2023-02-04T02:07:59.780Z,73.92
2023-02-04T02:13:06.125Z,73.95
2023-02-04T02:18:15.358Z,74.11
2023-02-04T02:23:30.674Z,73.75
2023-02-04T02:28:34.415Z,74.23
2023-02-04T02:33:38.548Z,73.84
2023-02-04T02:38:42.961Z,73.46
2023-02-04T02:43:46.837Z,73.81
2023-02-04T02:48:50.650Z,73.83
2023-02-04T02:53:54.558Z,73.04
2023-02-04T02:59:16.612Z,73.78
2023-02-04T03:04:23.092Z,73.79
2023-02-04T03:09:28.977Z,73.84
2023-02-04T03:14:34.202Z,73.91
2023-02-04T03:19:39.766Z,73.64
2023-02-04T03:24:43.902Z,73.64
2023-02-04T03:29:48.411Z,73.84
2023-02-04T03:34:52.340Z,73.74
2023-02-04T03:39:56.096Z,73.54
2023-02-04T03:45:00.312Z,72.93
2023-02-04T03:50:04.512Z,73.38
2023-02-04T03:55:08.503Z,73.61
2023-02-04T04:00:14.380Z,72.98
2023-02-04T04:05:18.286Z,73.51
2023-02-04T04:10:22.358Z,73.16
2023-02-04T04:15:26.251Z,73.50
2023-02-04T04:20:30.709Z,73.59
2023-02-04T04:25:35.677Z,73.24
2023-02-04T04:30:39.696Z,73.37
2023-02-04T04:35:43.684Z,73.08
2023-02-04T04:40:47.599Z,73.35
2023-02-04T04:45:51.638Z,73.51
2023-02-04T04:50:55.419Z,73.24
2023-02-04T04:56:00.303Z,73.21
2023-02-04T05:01:04.395Z,72.50
2023-02-04T05:06:09.853Z,72.79
2023-02-04T05:11:13.792Z,72.85
2023-02-04T05:16:18.920Z,72.11
2023-02-04T05:21:23.108Z,72.56
2023-02-04T05:26:30.498Z,72.35
2023-02-04T05:31:35.166Z,72.36
2023-02-04T05:36:38.850Z,71.86
2023-02-04T05:41:42.743Z,72.41
2023-02-04T05:46:46.642Z,72.04
2023-02-04T05:51:50.630Z,72.10
2023-02-04T05:56:54.775Z,72.01
2023-02-04T06:01:58.540Z,71.79
2023-02-04T06:07:02.537Z,71.39
2023-02-04T06:12:06.499Z,71.46
2023-02-04T06:17:10.567Z,71.54
2023-02-04T06:22:14.802Z,71.37
2023-02-04T06:27:24.292Z,71.52
2023-02-04T06:32:28.104Z,71.79
2023-02-04T06:37:32.092Z,71.41
2023-02-04T06:42:36.002Z,71.42
2023-02-04T06:47:39.865Z,71.63
2023-02-04T06:52:44.489Z,71.59
2023-02-04T06:57:48.257Z,71.65
2023-02-04T07:02:52.495Z,71.75
2023-02-04T07:07:56.350Z,71.76
2023-02-04T07:13:00.270Z,71.55
2023-02-04T07:18:04.532Z,71.57
2023-02-04T07:23:08.504Z,71.82
2023-02-04T07:28:12.534Z,72.07
2023-02-04T07:33:16.218Z,71.97
2023-02-04T07:38:20.107Z,71.94
2023-02-04T07:43:24.797Z,72.18
2023-02-04T07:48:28.661Z,72.00
2023-02-04T07:53:32.785Z,72.11
2023-02-04T07:58:36.582Z,72.25
2023-02-04T08:03:41.862Z,72.36
2023-02-04T08:08:45.904Z,72.51
2023-02-04T08:13:49.697Z,72.44
2023-02-04T08:18:53.577Z,72.80
2023-02-04T08:23:57.609Z,72.77
2023-02-04T08:29:01.584Z,72.67
2023-02-04T08:34:06.953Z,72.60
2023-02-04T08:39:10.962Z,72.55
2023-02-04T08:44:14.862Z,72.61
2023-02-04T08:49:18.598Z,72.83
2023-02-04T08:54:22.749Z,72.48
2023-02-04T08:59:26.613Z,71.94
2023-02-04T09:04:30.518Z,72.60
2023-02-04T09:09:34.438Z,72.38
2023-02-04T09:14:38.344Z,72.42
2023-02-04T09:19:43.076Z,72.49
2023-02-04T09:24:47.036Z,72.22
2023-02-04T09:29:50.999Z,72.50
2023-02-04T09:34:54.883Z,72.35
2023-02-04T09:39:58.651Z,72.68
2023-02-04T09:45:04.272Z,72.39
2023-02-04T09:50:16.283Z,72.64
2023-02-04T09:55:22.977Z,72.74
2023-02-04T10:00:30.253Z,72.81
2023-02-04T10:05:38.042Z,72.71
2023-02-04T10:10:42.372Z,72.99
2023-02-04T10:15:48.740Z,72.73
2023-02-04T10:21:15.406Z,73.00
2023-02-04T10:26:29.517Z,73.41
2023-02-04T10:31:38.988Z,73.33
2023-02-04T10:36:45.993Z,73.27
2023-02-04T10:41:58.481Z,73.50
2023-02-04T10:47:05.044Z,73.49
2023-02-04T10:52:18.970Z,74.18
2023-02-04T10:57:27.410Z,73.97
2023-02-04T11:02:57.739Z,73.90
2023-02-04T11:08:03.651Z,74.25
2023-02-04T11:13:08.237Z,74.56
2023-02-04T11:18:32.482Z,74.47
2023-02-04T11:23:38.256Z,74.71
2023-02-04T11:28:45.342Z,74.82
2023-02-04T11:33:51.155Z,74.32
2023-02-04T11:38:55.014Z,74.16
2023-02-04T11:44:00.894Z,74.68
2023-02-04T11:49:06.189Z,74.45
2023-02-04T11:54:10.137Z,74.38
2023-02-04T11:59:16.010Z,74.34
2023-02-04T12:04:26.456Z,74.88
2023-02-04T12:09:32.980Z,74.66
2023-02-04T12:14:38.808Z,74.63
2023-02-04T12:19:42.719Z,75.08
2023-02-04T12:24:46.660Z,74.80
2023-02-04T12:29:50.810Z,75.08
2023-02-04T12:34:54.820Z,75.10
2023-02-04T12:39:58.642Z,74.81
2023-02-04T12:45:02.543Z,74.64
2023-02-04T12:50:09.274Z,75.02
2023-02-04T12:55:13.184Z,74.84
2023-02-04T13:00:19.010Z,74.71
2023-02-04T13:05:23.289Z,74.26
2023-02-04T13:10:27.027Z,74.76
2023-02-04T13:15:31.342Z,74.96
2023-02-04T13:20:36.638Z,74.70
2023-02-04T13:25:41.107Z,75.08
2023-02-04T13:30:45.218Z,74.48
2023-02-04T13:35:49.112Z,74.71
2023-02-04T13:40:53.114Z,75.07
2023-02-04T13:45:58.424Z,74.70
2023-02-04T13:51:02.484Z,74.98
2023-02-04T13:56:06.230Z,74.76
2023-02-04T14:01:14.148Z,74.85
2023-02-04T14:06:21.218Z,74.69
2023-02-04T14:11:25.104Z,73.98
2023-02-04T14:16:29.215Z,74.00
2023-02-04T14:21:34.820Z,74.86
2023-02-04T14:26:38.579Z,74.78
2023-02-04T14:31:42.523Z,74.48
2023-02-04T14:36:46.329Z,74.40
2023-02-04T14:41:50.269Z,74.71
2023-02-04T14:46:54.406Z,74.55
2023-02-04T14:51:58.698Z,74.80
2023-02-04T14:57:02.723Z,74.59
2023-02-04T15:02:07.721Z,74.98
2023-02-04T15:07:12.844Z,74.48
2023-02-04T15:12:16.760Z,74.79
2023-02-04T15:17:20.826Z,74.28
2023-02-04T15:22:25.187Z,74.69
2023-02-04T15:27:29.028Z,74.43
2023-02-04T15:32:35.834Z,74.41
2023-02-04T15:37:53.945Z,74.31
2023-02-04T15:42:57.800Z,73.97
2023-02-04T15:48:01.756Z,74.49
2023-02-04T15:53:05.852Z,74.84
2023-02-04T15:58:09.677Z,74.37
2023-02-04T16:03:13.493Z,74.50
2023-02-04T16:08:17.302Z,74.05
2023-02-04T16:13:22.691Z,73.65
2023-02-04T16:18:27.375Z,74.76
2023-02-04T16:23:31.363Z,74.33
2023-02-04T16:28:35.269Z,74.19
2023-02-04T16:33:39.081Z,74.46
2023-02-04T16:38:46.032Z,74.46
2023-02-04T16:43:49.780Z,74.19
2023-02-04T16:48:54.563Z,74.15
2023-02-04T16:53:58.295Z,74.21
2023-02-04T16:59:05.272Z,74.41
2023-02-04T17:04:09.066Z,73.64
2023-02-04T17:09:13.873Z,73.92
2023-02-04T17:14:17.884Z,73.93
2023-02-04T17:19:21.881Z,74.03
2023-02-04T17:24:26.115Z,74.17
2023-02-04T17:29:29.911Z,74.08
2023-02-04T17:34:33.876Z,73.91
2023-02-04T17:39:37.685Z,73.98
2023-02-04T17:44:41.637Z,74.31
2023-02-04T17:49:45.594Z,73.86
2023-02-04T17:54:49.320Z,74.17
2023-02-04T17:59:53.344Z,73.92
2023-02-04T18:05:06.651Z,73.97
2023-02-04T18:10:33.147Z,73.85
2023-02-04T18:15:37.297Z,73.72
2023-02-04T18:20:41.915Z,74.02
2023-02-04T18:25:49.288Z,74.22
2023-02-04T18:30:59.674Z,74.24
2023-02-04T18:36:03.795Z,73.87
2023-02-04T18:41:19.655Z,73.41
2023-02-04T18:46:29.563Z,74.20
2023-02-04T18:51:36.513Z,74.03
2023-02-04T18:56:40.327Z,74.13
2023-02-04T19:01:45.756Z,74.17
2023-02-04T19:06:53.018Z,73.63
2023-02-04T19:12:15.635Z,74.03
2023-02-04T19:17:25.205Z,74.08
2023-02-04T19:22:50.320Z,74.36
2023-02-04T19:27:59.454Z,73.82
2023-02-04T19:33:16.602Z,73.41
2023-02-04T19:38:38.630Z,74.15
2023-02-04T19:43:42.369Z,74.40
2023-02-04T19:48:46.466Z,74.01
2023-02-04T19:53:54.979Z,73.01
2023-02-04T19:58:59.816Z,73.84
2023-02-04T20:04:13.824Z,74.13
2023-02-04T20:09:28.174Z,73.91
2023-02-04T20:14:41.131Z,73.77
2023-02-04T20:19:45.893Z,73.98
2023-02-04T20:24:50.878Z,73.41
2023-02-04T20:30:15.769Z,74.27
2023-02-04T20:35:22.923Z,74.30
2023-02-04T20:40:37.313Z,74.35
2023-02-04T20:46:06.265Z,73.64
2023-02-04T20:51:22.200Z,74.27
2023-02-04T20:56:36.276Z,74.17
2023-02-04T21:01:49.438Z,74.39
2023-02-04T21:06:55.809Z,74.12
2023-02-04T21:12:01.221Z,74.17
2023-02-04T21:17:06.190Z,73.50
2023-02-04T21:22:10.008Z,73.91
2023-02-04T21:27:15.506Z,73.39
2023-02-04T21:32:19.385Z,74.02
2023-02-04T21:37:23.202Z,73.67
2023-02-04T21:42:26.945Z,73.72
2023-02-04T21:47:30.814Z,73.83
2023-02-04T21:52:34.917Z,74.42
2023-02-04T21:57:38.953Z,74.02
2023-02-04T22:02:42.946Z,74.03
2023-02-04T22:07:46.905Z,73.95
2023-02-04T22:12:50.797Z,73.97
2023-02-04T22:17:55.719Z,73.64
2023-02-04T22:22:59.482Z,74.04
2023-02-04T22:28:03.711Z,73.92
2023-02-04T22:33:08.111Z,74.04
2023-02-04T22:38:11.960Z,73.83
2023-02-04T22:43:16.457Z,73.87
2023-02-04T22:48:20.135Z,74.13
2023-02-04T22:53:24.041Z,74.46
2023-02-04T22:58:27.819Z,73.95
2023-02-04T23:03:31.759Z,74.21
2023-02-04T23:08:37.168Z,73.76
2023-02-04T23:13:40.914Z,73.80
2023-02-04T23:18:44.851Z,73.73
2023-02-04T23:23:50.101Z,73.88
2023-02-04T23:28:54.093Z,73.66
2023-02-04T23:33:58.047Z,73.33
2023-02-04T23:39:02.031Z,73.24
2023-02-04T23:44:06.022Z,73.23
2023-02-04T23:49:10.972Z,73.65
2023-02-04T23:54:14.898Z,73.42
2023-02-04T23:59:19.468Z,73.43
